sensor_id;sensor_type;location;lat;lon;timestamp;pressure;altitude;pressure_sealevel;temperature;humidity
7918;BME280;4004;42.624;23.386;2023-01-26T00:02:20;94605.91;;;-1.24;100.00
7918;BME280;4004;42.624;23.386;2023-01-26T00:04:47;94621.97;;;-1.20;100.00
7918;BME280;4004;42.624;23.386;2023-01-26T00:07:15;94603.81;;;-1.22;100.00
7918;BME280;4004;42.624;23.386;2023-01-26T00:09:42;94609.59;;;-1.20;100.00
7918;BME280;4004;42.624;23.386;2023-01-26T00:12:08;94605.91;;;-1.24;100.00
7918;BME280;4004;42.624;23.386;2023-01-26T00:14:35;94606.97;;;-1.25;100.00
7918;BME280;4004;42.624;23.386;2023-01-26T00:17:20;94613.00;;;-1.25;100.00
7918;BME280;4004;42.624;23.386;2023-01-26T00:19:57;94619.91;;;-1.29;100.00
7918;BME280;4004;42.624;23.386;2023-01-26T00:22:26;94618.84;;;-1.28;100.00
7918;BME280;4004;42.624;23.386;2023-01-26T00:24:53;94617.78;;;-1.27;100.00
7918;BME280;4004;42.624;23.386;2023-01-26T00:27:19;94618.84;;;-1.28;100.00
7918;BME280;4004;42.624;23.386;2023-01-26T00:29:46;94614.09;;;-1.26;100.00
7918;BME280;4004;42.624;23.386;2023-01-26T00:32:13;94600.13;;;-1.26;100.00
7918;BME280;4004;42.624;23.386;2023-01-26T00:34:39;94582.47;;;-1.31;100.00
7918;BME280;4004;42.624;23.386;2023-01-26T00:37:06;94570.34;;;-1.37;100.00
7918;BME280;4004;42.624;23.386;2023-01-26T00:39:34;94585.63;;;-1.34;100.00
7918;BME280;4004;42.624;23.386;2023-01-26T00:42:01;94598.53;;;-1.32;100.00
7918;BME280;4004;42.624;23.386;2023-01-26T00:44:39;94575.88;;;-1.38;100.00
7918;BME280;4004;42.624;23.386;2023-01-26T00:47:08;94594.34;;;-1.38;100.00
7918;BME280;4004;42.624;23.386;2023-01-26T00:49:35;94579.84;;;-1.41;100.00
7918;BME280;4004;42.624;23.386;2023-01-26T00:52:02;94580.91;;;-1.42;100.00
7918;BME280;4004;42.624;23.386;2023-01-26T00:54:29;94594.06;;;-1.37;100.00
7918;BME280;4004;42.624;23.386;2023-01-26T00:56:57;94585.38;;;-1.37;100.00
7918;BME280;4004;42.624;23.386;2023-01-26T00:59:24;94575.63;;;-1.42;100.00
7918;BME280;4004;42.624;23.386;2023-01-26T01:01:51;94586.44;;;-1.43;100.00
7918;BME280;4004;42.624;23.386;2023-01-26T01:04:18;94562.69;;;-1.38;100.00
7918;BME280;4004;42.624;23.386;2023-01-26T01:06:45;94565.06;;;-1.37;100.00
7918;BME280;4004;42.624;23.386;2023-01-26T01:09:12;94577.47;;;-1.42;100.00
7918;BME280;4004;42.624;23.386;2023-01-26T01:11:39;94557.97;;;-1.41;100.00
7918;BME280;4004;42.624;23.386;2023-01-26T01:14:08;94559.00;;;-1.42;100.00
7918;BME280;4004;42.624;23.386;2023-01-26T01:16:35;94572.19;;;-1.42;100.00
7918;BME280;4004;42.624;23.386;2023-01-26T01:19:02;94557.16;;;-1.37;100.00
7918;BME280;4004;42.624;23.386;2023-01-26T01:21:29;94547.66;;;-1.38;100.00
7918;BME280;4004;42.624;23.386;2023-01-26T01:23:56;94539.75;;;-1.38;100.00
7918;BME280;4004;42.624;23.386;2023-01-26T01:26:23;94553.72;;;-1.37;100.00
7918;BME280;4004;42.624;23.386;2023-01-26T01:28:52;94555.06;;;-1.40;100.00
7918;BME280;4004;42.624;23.386;2023-01-26T01:31:21;94543.72;;;-1.46;100.00
7918;BME280;4004;42.624;23.386;2023-01-26T01:33:48;94546.63;;;-1.42;100.00
7918;BME280;4004;42.624;23.386;2023-01-26T01:36:16;94554.00;;;-1.49;100.00
7918;BME280;4004;42.624;23.386;2023-01-26T01:38:44;94545.03;;;-1.43;100.00
7918;BME280;4004;42.624;23.386;2023-01-26T01:41:11;94545.78;;;-1.32;100.00
7918;BME280;4004;42.624;23.386;2023-01-26T01:43:39;94536.56;;;-1.35;100.00
7918;BME280;4004;42.624;23.386;2023-01-26T01:46:08;94544.22;;;-1.33;100.00
7918;BME280;4004;42.624;23.386;2023-01-26T01:48:46;94544.22;;;-1.33;100.00
7918;BME280;4004;42.624;23.386;2023-01-26T01:51:18;94517.88;;;-1.43;100.00
7918;BME280;4004;42.624;23.386;2023-01-26T01:53:49;94538.44;;;-1.35;100.00
7918;BME280;4004;42.624;23.386;2023-01-26T01:56:19;94545.81;;;-1.37;100.00
7918;BME280;4004;42.624;23.386;2023-01-26T01:58:50;94546.56;;;-1.32;100.00
7918;BME280;4004;42.624;23.386;2023-01-26T02:01:19;94546.03;;;-1.34;100.00
7918;BME280;4004;42.624;23.386;2023-01-26T02:03:49;94540.25;;;-1.36;100.00
7918;BME280;4004;42.624;23.386;2023-01-26T02:06:20;94535.50;;;-1.34;100.00
7918;BME280;4004;42.624;23.386;2023-01-26T02:08:50;94527.88;;;-1.35;100.00
7918;BME280;4004;42.624;23.386;2023-01-26T02:11:20;94530.50;;;-1.35;100.00
7918;BME280;4004;42.624;23.386;2023-01-26T02:13:48;94532.84;;;-1.34;100.00
7918;BME280;4004;42.624;23.386;2023-01-26T02:16:16;94526.81;;;-1.34;100.00
7918;BME280;4004;42.624;23.386;2023-01-26T02:18:43;94515.72;;;-1.36;100.00
7918;BME280;4004;42.624;23.386;2023-01-26T02:21:15;94519.22;;;-1.46;100.00
7918;BME280;4004;42.624;23.386;2023-01-26T02:23:50;94503.66;;;-1.48;100.00
7918;BME280;4004;42.624;23.386;2023-01-26T02:26:21;94497.06;;;-1.50;100.00
7918;BME280;4004;42.624;23.386;2023-01-26T02:28:49;94490.19;;;-1.46;100.00
7918;BME280;4004;42.624;23.386;2023-01-26T02:31:16;94507.06;;;-1.47;100.00
7918;BME280;4004;42.624;23.386;2023-01-26T02:33:44;94502.31;;;-1.45;100.00
7918;BME280;4004;42.624;23.386;2023-01-26T02:36:17;94495.72;;;-1.48;100.00
7918;BME280;4004;42.624;23.386;2023-01-26T02:38:50;94482.28;;;-1.46;100.00
7918;BME280;4004;42.624;23.386;2023-01-26T02:41:20;94487.56;;;-1.46;100.00
7918;BME280;4004;42.624;23.386;2023-01-26T02:44:01;94483.63;;;-1.49;100.00
7918;BME280;4004;42.624;23.386;2023-01-26T02:46:28;94479.38;;;-1.44;100.00
7918;BME280;4004;42.624;23.386;2023-01-26T02:48:55;94475.41;;;-1.42;100.00
7918;BME280;4004;42.624;23.386;2023-01-26T02:51:40;94465.13;;;-1.43;100.00
7918;BME280;4004;42.624;23.386;2023-01-26T02:54:06;94464.88;;;-1.42;100.00
7918;BME280;4004;42.624;23.386;2023-01-26T02:56:34;94467.25;;;-1.46;100.00
7918;BME280;4004;42.624;23.386;2023-01-26T02:59:04;94468.56;;;-1.43;100.00
7918;BME280;4004;42.624;23.386;2023-01-26T03:01:30;94449.06;;;-1.47;100.00
7918;BME280;4004;42.624;23.386;2023-01-26T03:03:57;94459.06;;;-1.44;100.00
7918;BME280;4004;42.624;23.386;2023-01-26T03:06:24;94456.16;;;-1.42;100.00
7918;BME280;4004;42.624;23.386;2023-01-26T03:08:51;94450.38;;;-1.44;100.00
7918;BME280;4004;42.624;23.386;2023-01-26T03:11:17;94458.78;;;-1.37;100.00
7918;BME280;4004;42.624;23.386;2023-01-26T03:13:45;94457.47;;;-1.45;100.00
7918;BME280;4004;42.624;23.386;2023-01-26T03:16:12;94456.44;;;-1.44;100.00
7918;BME280;4004;42.624;23.386;2023-01-26T03:18:43;94439.53;;;-1.43;100.00
7918;BME280;4004;42.624;23.386;2023-01-26T03:21:27;94437.69;;;-1.37;100.00
7918;BME280;4004;42.624;23.386;2023-01-26T03:24:11;94432.94;;;-1.40;100.00
7918;BME280;4004;42.624;23.386;2023-01-26T03:26:56;94434.78;;;-1.41;100.00
7918;BME280;4004;42.624;23.386;2023-01-26T03:29:41;94432.19;;;-1.46;100.00
7918;BME280;4004;42.624;23.386;2023-01-26T03:32:08;94421.69;;;-1.51;100.00
7918;BME280;4004;42.624;23.386;2023-01-26T03:34:35;94419.22;;;-1.42;100.00
7918;BME280;4004;42.624;23.386;2023-01-26T03:37:02;94413.22;;;-1.48;100.00
7918;BME280;4004;42.624;23.386;2023-01-26T03:39:29;94421.38;;;-1.44;100.00
7918;BME280;4004;42.624;23.386;2023-01-26T03:42:13;94424.84;;;-1.54;100.00
7918;BME280;4004;42.624;23.386;2023-01-26T03:44:58;94435.91;;;-1.52;100.00
7918;BME280;4004;42.624;23.386;2023-01-26T03:47:42;94420.59;;;-1.50;100.00
7918;BME280;4004;42.624;23.386;2023-01-26T03:50:27;94419.31;;;-1.53;100.00
7918;BME280;4004;42.624;23.386;2023-01-26T03:53:12;94408.22;;;-1.55;100.00
7918;BME280;4004;42.624;23.386;2023-01-26T03:55:56;94409.53;;;-1.52;100.00
7918;BME280;4004;42.624;23.386;2023-01-26T03:58:40;94402.66;;;-1.48;100.00
7918;BME280;4004;42.624;23.386;2023-01-26T04:01:08;94397.34;;;-1.43;100.00
7918;BME280;4004;42.624;23.386;2023-01-26T04:03:45;94404.19;;;-1.37;100.00
7918;BME280;4004;42.624;23.386;2023-01-26T04:06:29;94408.44;;;-1.46;100.00
7918;BME280;4004;42.624;23.386;2023-01-26T04:09:13;94395.78;;;-1.44;100.00
7918;BME280;4004;42.624;23.386;2023-01-26T04:11:40;94402.38;;;-1.41;100.00
7918;BME280;4004;42.624;23.386;2023-01-26T04:14:09;94394.19;;;-1.45;100.00
7918;BME280;4004;42.624;23.386;2023-01-26T04:16:55;94377.84;;;-1.42;100.00
7918;BME280;4004;42.624;23.386;2023-01-26T04:19:39;94385.75;;;-1.47;100.00
7918;BME280;4004;42.624;23.386;2023-01-26T04:22:23;94381.81;;;-1.44;100.00
7918;BME280;4004;42.624;23.386;2023-01-26T04:24:50;94364.44;;;-1.51;100.00
7918;BME280;4004;42.624;23.386;2023-01-26T04:27:16;94360.44;;;-1.43;100.00
7918;BME280;4004;42.624;23.386;2023-01-26T04:29:43;94367.81;;;-1.45;100.00
7918;BME280;4004;42.624;23.386;2023-01-26T04:32:11;94373.09;;;-1.45;100.00
7918;BME280;4004;42.624;23.386;2023-01-26T04:34:38;94368.66;;;-1.50;100.00
7918;BME280;4004;42.624;23.386;2023-01-26T04:37:04;94369.44;;;-1.49;100.00
7918;BME280;4004;42.624;23.386;2023-01-26T04:39:31;94371.53;;;-1.46;100.00
7918;BME280;4004;42.624;23.386;2023-01-26T04:41:58;94372.31;;;-1.46;100.00
7918;BME280;4004;42.624;23.386;2023-01-26T04:44:25;94363.69;;;-1.56;100.00
7918;BME280;4004;42.624;23.386;2023-01-26T04:46:51;94353.13;;;-1.51;100.00
7918;BME280;4004;42.624;23.386;2023-01-26T04:49:19;94361.50;;;-1.49;100.00
7918;BME280;4004;42.624;23.386;2023-01-26T04:51:46;94354.69;;;-1.50;100.00
7918;BME280;4004;42.624;23.386;2023-01-26T04:54:13;94356.25;;;-1.49;100.00
7918;BME280;4004;42.624;23.386;2023-01-26T04:56:40;94345.47;;;-1.53;100.00
7918;BME280;4004;42.624;23.386;2023-01-26T04:59:08;94358.63;;;-1.48;100.00
7918;BME280;4004;42.624;23.386;2023-01-26T05:01:35;94353.13;;;-1.51;100.00
7918;BME280;4004;42.624;23.386;2023-01-26T05:04:03;94362.56;;;-1.45;100.00
7918;BME280;4004;42.624;23.386;2023-01-26T05:06:32;94365.44;;;-1.41;100.00
7918;BME280;4004;42.624;23.386;2023-01-26T05:08:59;94372.19;;;-1.25;100.00
7918;BME280;4004;42.624;23.386;2023-01-26T05:11:25;94351.38;;;-1.32;100.00
7918;BME280;4004;42.624;23.386;2023-01-26T05:13:52;94352.97;;;-1.31;100.00
7918;BME280;4004;42.624;23.386;2023-01-26T05:16:19;94347.19;;;-1.33;100.00
7918;BME280;4004;42.624;23.386;2023-01-26T05:18:46;94348.44;;;-1.20;100.00
7918;BME280;4004;42.624;23.386;2023-01-26T05:21:12;94363.44;;;-1.15;100.00
7918;BME280;4004;42.624;23.386;2023-01-26T05:23:40;94354.69;;;-1.16;100.00
7918;BME280;4004;42.624;23.386;2023-01-26T05:26:07;94344.97;;;-1.20;100.00
7918;BME280;4004;42.624;23.386;2023-01-26T05:28:34;94351.59;;;-1.23;100.00
7918;BME280;4004;42.624;23.386;2023-01-26T05:31:01;94347.91;;;-1.22;100.00
7918;BME280;4004;42.624;23.386;2023-01-26T05:33:27;94349.75;;;-1.22;100.00
7918;BME280;4004;42.624;23.386;2023-01-26T05:35:54;94339.28;;;-1.33;100.00
7918;BME280;4004;42.624;23.386;2023-01-26T05:38:21;94345.28;;;-1.22;100.00
7918;BME280;4004;42.624;23.386;2023-01-26T05:40:49;94348.75;;;-1.32;100.00
7918;BME280;4004;42.624;23.386;2023-01-26T05:43:16;94338.19;;;-1.27;100.00
7918;BME280;4004;42.624;23.386;2023-01-26T05:45:43;94350.84;;;-1.29;100.00
7918;BME280;4004;42.624;23.386;2023-01-26T05:48:09;94342.66;;;-1.27;100.00
7918;BME280;4004;42.624;23.386;2023-01-26T05:50:36;94343.94;;;-1.19;100.00
7918;BME280;4004;42.624;23.386;2023-01-26T05:53:03;94341.00;;;-1.18;100.00
7918;BME280;4004;42.624;23.386;2023-01-26T05:55:30;94343.31;;;-1.11;100.00
7918;BME280;4004;42.624;23.386;2023-01-26T05:57:58;94344.09;;;-1.06;100.00
7918;BME280;4004;42.624;23.386;2023-01-26T06:00:25;94349.41;;;-1.11;100.00
7918;BME280;4004;42.624;23.386;2023-01-26T06:02:52;94338.66;;;-1.19;100.00
7918;BME280;4004;42.624;23.386;2023-01-26T06:05:18;94353.13;;;-1.17;100.00
7918;BME280;4004;42.624;23.386;2023-01-26T06:07:45;94328.63;;;-1.17;100.00
7918;BME280;4004;42.624;23.386;2023-01-26T06:10:12;94331.25;;;-1.17;100.00
7918;BME280;4004;42.624;23.386;2023-01-26T06:12:38;94337.56;;;-1.18;100.00
7918;BME280;4004;42.624;23.386;2023-01-26T06:15:09;94335.69;;;-1.13;100.00
7918;BME280;4004;42.624;23.386;2023-01-26T06:17:37;94332.22;;;-1.08;100.00
7918;BME280;4004;42.624;23.386;2023-01-26T06:20:05;94333.06;;;-1.13;100.00
7918;BME280;4004;42.624;23.386;2023-01-26T06:22:32;94326.91;;;-1.03;100.00
7918;BME280;4004;42.624;23.386;2023-01-26T06:24:59;94324.50;;;-0.99;100.00
7918;BME280;4004;42.624;23.386;2023-01-26T06:27:26;94337.41;;;-0.98;100.00
7918;BME280;4004;42.624;23.386;2023-01-26T06:29:53;94329.75;;;-0.94;100.00
7918;BME280;4004;42.624;23.386;2023-01-26T06:32:21;94322.91;;;-0.95;100.00
7918;BME280;4004;42.624;23.386;2023-01-26T06:34:47;94313.63;;;-0.93;100.00
7918;BME280;4004;42.624;23.386;2023-01-26T06:37:14;94316.22;;;-0.88;100.00
7918;BME280;4004;42.624;23.386;2023-01-26T06:39:41;94315.75;;;-0.95;100.00
7918;BME280;4004;42.624;23.386;2023-01-26T06:42:08;94324.47;;;-0.94;100.00
7918;BME280;4004;42.624;23.386;2023-01-26T06:44:35;94328.38;;;-0.92;100.00
7918;BME280;4004;42.624;23.386;2023-01-26T06:47:01;94318.63;;;-0.91;100.00
7918;BME280;4004;42.624;23.386;2023-01-26T06:49:29;94313.59;;;-0.88;100.00
7918;BME280;4004;42.624;23.386;2023-01-26T06:51:58;94318.06;;;-0.88;100.00
7918;BME280;4004;42.624;23.386;2023-01-26T06:54:28;94316.50;;;-0.89;100.00
7918;BME280;4004;42.624;23.386;2023-01-26T06:56:55;94310.44;;;-0.90;100.00
7918;BME280;4004;42.624;23.386;2023-01-26T06:59:22;94315.44;;;-0.88;100.00
7918;BME280;4004;42.624;23.386;2023-01-26T07:01:48;94324.91;;;-0.87;100.00
7918;BME280;4004;42.624;23.386;2023-01-26T07:04:15;94321.75;;;-0.84;100.00
7918;BME280;4004;42.624;23.386;2023-01-26T07:06:44;94312.28;;;-0.90;100.00
7918;BME280;4004;42.624;23.386;2023-01-26T07:09:10;94299.47;;;-1.02;100.00
7918;BME280;4004;42.624;23.386;2023-01-26T07:11:37;94300.47;;;-0.98;100.00
7918;BME280;4004;42.624;23.386;2023-01-26T07:14:04;94298.56;;;-0.92;100.00
7918;BME280;4004;42.624;23.386;2023-01-26T07:16:31;94294.53;;;-0.85;100.00
7918;BME280;4004;42.624;23.386;2023-01-26T07:18:57;94296.06;;;-0.78;100.00
7918;BME280;4004;42.624;23.386;2023-01-26T07:21:24;94278.38;;;-0.78;100.00
7918;BME280;4004;42.624;23.386;2023-01-26T07:23:54;94291.22;;;-0.66;100.00
7918;BME280;4004;42.624;23.386;2023-01-26T07:26:21;94291.56;;;-0.78;100.00
7918;BME280;4004;42.624;23.386;2023-01-26T07:28:47;94289.75;;;-0.82;100.00
7918;BME280;4004;42.624;23.386;2023-01-26T07:31:14;94290.47;;;-0.72;100.00
7918;BME280;4004;42.624;23.386;2023-01-26T07:33:41;94292.03;;;-0.71;100.00
7918;BME280;4004;42.624;23.386;2023-01-26T07:36:08;94289.84;;;-0.64;100.00
7918;BME280;4004;42.624;23.386;2023-01-26T07:38:35;94282.66;;;-0.58;100.00
7918;BME280;4004;42.624;23.386;2023-01-26T07:41:08;94279.97;;;-0.53;100.00
7918;BME280;4004;42.624;23.386;2023-01-26T07:43:36;94281.97;;;-0.45;100.00
7918;BME280;4004;42.624;23.386;2023-01-26T07:46:03;94281.72;;;-0.43;100.00
7918;BME280;4004;42.624;23.386;2023-01-26T07:48:30;94284.63;;;-0.45;100.00
7918;BME280;4004;42.624;23.386;2023-01-26T07:50:59;94274.38;;;-0.27;100.00
7918;BME280;4004;42.624;23.386;2023-01-26T07:53:27;94244.63;;;-0.57;100.00
7918;BME280;4004;42.624;23.386;2023-01-26T07:56:04;94279.00;;;-0.38;100.00
7918;BME280;4004;42.624;23.386;2023-01-26T07:58:32;94276.66;;;-0.39;100.00
7918;BME280;4004;42.624;23.386;2023-01-26T08:01:11;94284.25;;;-0.33;100.00
7918;BME280;4004;42.624;23.386;2023-01-26T08:03:38;94283.50;;;-0.38;100.00
7918;BME280;4004;42.624;23.386;2023-01-26T08:06:05;94275.31;;;-0.37;100.00
7918;BME280;4004;42.624;23.386;2023-01-26T08:08:33;94267.66;;;-0.38;100.00
7918;BME280;4004;42.624;23.386;2023-01-26T08:11:01;94264.22;;;-0.39;100.00
7918;BME280;4004;42.624;23.386;2023-01-26T08:13:28;94266.09;;;-0.39;100.00
7918;BME280;4004;42.624;23.386;2023-01-26T08:16:01;94269.75;;;-0.35;100.00
7918;BME280;4004;42.624;23.386;2023-01-26T08:18:28;94221.47;;;-0.65;100.00
7918;BME280;4004;42.624;23.386;2023-01-26T08:20:55;94259.47;;;-0.37;100.00
7918;BME280;4004;42.624;23.386;2023-01-26T08:23:22;94260.16;;;-0.31;100.00
7918;BME280;4004;42.624;23.386;2023-01-26T08:25:48;94251.63;;;-0.23;100.00
7918;BME280;4004;42.624;23.386;2023-01-26T08:28:15;94255.97;;;-0.32;100.00
7918;BME280;4004;42.624;23.386;2023-01-26T08:30:42;94253.75;;;-0.25;100.00
7918;BME280;4004;42.624;23.386;2023-01-26T08:33:10;94249.06;;;-0.28;100.00
7918;BME280;4004;42.624;23.386;2023-01-26T08:35:37;94248.47;;;-0.25;100.00
7918;BME280;4004;42.624;23.386;2023-01-26T08:38:04;94255.84;;;-0.22;100.00
7918;BME280;4004;42.624;23.386;2023-01-26T08:40:31;94262.19;;;-0.23;100.00
7918;BME280;4004;42.624;23.386;2023-01-26T08:42:59;94262.25;;;-0.28;100.00
7918;BME280;4004;42.624;23.386;2023-01-26T08:45:27;94257.53;;;-0.31;100.00
7918;BME280;4004;42.624;23.386;2023-01-26T08:47:54;94250.69;;;-0.32;100.00
7918;BME280;4004;42.624;23.386;2023-01-26T08:50:23;94242.25;;;-0.34;100.00
7918;BME280;4004;42.624;23.386;2023-01-26T08:52:49;94254.44;;;-0.38;100.00
7918;BME280;4004;42.624;23.386;2023-01-26T08:55:16;94261.25;;;-0.32;100.00
7918;BME280;4004;42.624;23.386;2023-01-26T08:57:43;94245.84;;;-0.25;100.00
7918;BME280;4004;42.624;23.386;2023-01-26T09:00:12;94266.41;;;-0.22;100.00
7918;BME280;4004;42.624;23.386;2023-01-26T09:02:41;94249.56;;;-0.26;100.00
7918;BME280;4004;42.624;23.386;2023-01-26T09:05:08;94277.78;;;-0.22;100.00
7918;BME280;4004;42.624;23.386;2023-01-26T09:07:36;94262.97;;;-0.23;100.00
7918;BME280;4004;42.624;23.386;2023-01-26T09:10:04;94259.28;;;-0.22;100.00
7918;BME280;4004;42.624;23.386;2023-01-26T09:12:31;94242.91;;;-0.24;100.00
7918;BME280;4004;42.624;23.386;2023-01-26T09:14:58;94247.34;;;-0.19;100.00
7918;BME280;4004;42.624;23.386;2023-01-26T09:17:25;94238.41;;;-0.23;100.00
7918;BME280;4004;42.624;23.386;2023-01-26T09:19:52;94235.00;;;-0.24;100.00
7918;BME280;4004;42.624;23.386;2023-01-26T09:22:18;94228.28;;;-0.16;100.00
7918;BME280;4004;42.624;23.386;2023-01-26T09:24:46;94226.72;;;-0.17;100.00
7918;BME280;4004;42.624;23.386;2023-01-26T09:27:13;94219.00;;;-0.13;100.00
7918;BME280;4004;42.624;23.386;2023-01-26T09:29:40;94222.44;;;-0.13;100.00
7918;BME280;4004;42.624;23.386;2023-01-26T09:32:06;94207.00;;;-0.06;100.00
7918;BME280;4004;42.624;23.386;2023-01-26T09:34:33;94203.50;;;-0.01;100.00
7918;BME280;4004;42.624;23.386;2023-01-26T09:37:00;94210.38;;;0.00;100.00
7918;BME280;4004;42.624;23.386;2023-01-26T09:39:27;94210.38;;;0.00;100.00
7918;BME280;4004;42.624;23.386;2023-01-26T09:42:25;94196.66;;;-0.02;100.00
7918;BME280;4004;42.624;23.386;2023-01-26T09:45:01;94219.88;;;0.01;100.00
7918;BME280;4004;42.624;23.386;2023-01-26T09:47:40;94208.78;;;-0.01;100.00
7918;BME280;4004;42.624;23.386;2023-01-26T09:50:11;94206.88;;;0.05;100.00
7918;BME280;4004;42.624;23.386;2023-01-26T09:52:47;94198.09;;;0.09;100.00
7918;BME280;4004;42.624;23.386;2023-01-26T09:55:18;94198.78;;;0.15;100.00
7918;BME280;4004;42.624;23.386;2023-01-26T09:57:50;94183.69;;;0.15;100.00
7918;BME280;4004;42.624;23.386;2023-01-26T10:00:21;94188.69;;;0.17;100.00
7918;BME280;4004;42.624;23.386;2023-01-26T10:02:59;94183.63;;;0.20;100.00
7918;BME280;4004;42.624;23.386;2023-01-26T10:05:39;94189.41;;;0.23;100.00
7918;BME280;4004;42.624;23.386;2023-01-26T10:08:11;94184.31;;;0.26;100.00
7918;BME280;4004;42.624;23.386;2023-01-26T10:10:43;94186.91;;;0.31;100.00
7918;BME280;4004;42.624;23.386;2023-01-26T10:13:15;94188.63;;;0.22;100.00
7918;BME280;4004;42.624;23.386;2023-01-26T10:15:47;94195.00;;;0.21;100.00
7918;BME280;4004;42.624;23.386;2023-01-26T10:18:17;94177.75;;;0.24;100.00
7918;BME280;4004;42.624;23.386;2023-01-26T10:20:48;94169.06;;;0.23;100.00
7918;BME280;4004;42.624;23.386;2023-01-26T10:23:18;94151.03;;;0.25;100.00
7918;BME280;4004;42.624;23.386;2023-01-26T10:25:48;94146.03;;;0.24;100.00
7918;BME280;4004;42.624;23.386;2023-01-26T10:28:18;94153.09;;;0.28;100.00
7918;BME280;4004;42.624;23.386;2023-01-26T10:30:46;94141.66;;;0.33;100.00
7918;BME280;4004;42.624;23.386;2023-01-26T10:33:17;94138.00;;;0.29;100.00
7918;BME280;4004;42.624;23.386;2023-01-26T10:35:44;94133.22;;;0.31;100.00
7918;BME280;4004;42.624;23.386;2023-01-26T10:38:40;94138.72;;;0.34;100.00
7918;BME280;4004;42.624;23.386;2023-01-26T10:41:21;94113.16;;;0.30;100.00
7918;BME280;4004;42.624;23.386;2023-01-26T10:43:52;94108.66;;;0.30;100.00
7918;BME280;4004;42.624;23.386;2023-01-26T10:46:24;94105.34;;;0.38;100.00
7918;BME280;4004;42.624;23.386;2023-01-26T10:48:51;94090.38;;;0.48;100.00
7918;BME280;4004;42.624;23.386;2023-01-26T10:51:23;94089.38;;;0.44;100.00
7918;BME280;4004;42.624;23.386;2023-01-26T10:53:55;94096.72;;;0.47;100.00
7918;BME280;4004;42.624;23.386;2023-01-26T10:56:43;94075.00;;;0.50;100.00
7918;BME280;4004;42.624;23.386;2023-01-26T10:59:15;94072.84;;;0.52;100.00
7918;BME280;4004;42.624;23.386;2023-01-26T11:01:53;94062.25;;;0.52;100.00
7918;BME280;4004;42.624;23.386;2023-01-26T11:04:21;94058.53;;;0.53;100.00
7918;BME280;4004;42.624;23.386;2023-01-26T11:06:48;94057.94;;;0.56;100.00
7918;BME280;4004;42.624;23.386;2023-01-26T11:09:20;94051.56;;;0.57;100.00
7918;BME280;4004;42.624;23.386;2023-01-26T11:11:57;94054.22;;;0.57;100.00
7918;BME280;4004;42.624;23.386;2023-01-26T11:14:26;94046.78;;;0.59;100.00
7918;BME280;4004;42.624;23.386;2023-01-26T11:16:59;94043.03;;;0.60;100.00
7918;BME280;4004;42.624;23.386;2023-01-26T11:19:50;94035.97;;;0.55;100.00
7918;BME280;4004;42.624;23.386;2023-01-26T11:22:25;94026.69;;;0.58;100.00
7918;BME280;4004;42.624;23.386;2023-01-26T11:25:00;94022.47;;;0.57;100.00
7918;BME280;4004;42.624;23.386;2023-01-26T11:27:38;94018.94;;;0.61;100.00
7918;BME280;4004;42.624;23.386;2023-01-26T11:33:18;93996.50;;;0.59;100.00
7918;BME280;4004;42.624;23.386;2023-01-26T11:35:56;93999.03;;;0.64;100.00
7918;BME280;4004;42.624;23.386;2023-01-26T11:38:37;94001.78;;;0.73;100.00
7918;BME280;4004;42.624;23.386;2023-01-26T11:41:30;93991.97;;;0.73;100.00
7918;BME280;4004;42.624;23.386;2023-01-26T11:44:14;93982.28;;;0.69;100.00
7918;BME280;4004;42.624;23.386;2023-01-26T11:47:07;93990.44;;;0.72;100.00
7918;BME280;4004;42.624;23.386;2023-01-26T11:49:50;93982.09;;;0.65;100.00
7918;BME280;4004;42.624;23.386;2023-01-26T11:52:27;93981.13;;;0.61;100.00
7918;BME280;4004;42.624;23.386;2023-01-26T11:55:15;93987.88;;;0.53;100.00
7918;BME280;4004;42.624;23.386;2023-01-26T11:57:53;93996.03;;;0.57;100.00
7918;BME280;4004;42.624;23.386;2023-01-26T12:00:28;93988.97;;;0.52;100.00
7918;BME280;4004;42.624;23.386;2023-01-26T12:03:02;93979.00;;;0.49;100.00
7918;BME280;4004;42.624;23.386;2023-01-26T12:05:40;93977.63;;;0.52;100.00
7918;BME280;4004;42.624;23.386;2023-01-26T12:08:14;93979.88;;;0.45;100.00
7918;BME280;4004;42.624;23.386;2023-01-26T12:10:47;93975.84;;;0.47;100.00
7918;BME280;4004;42.624;23.386;2023-01-26T12:13:18;93986.59;;;0.51;100.00
7918;BME280;4004;42.624;23.386;2023-01-26T12:15:52;93960.97;;;0.51;100.00
7918;BME280;4004;42.624;23.386;2023-01-26T12:18:23;93956.44;;;0.52;100.00
7918;BME280;4004;42.624;23.386;2023-01-26T12:20:55;93954.09;;;0.50;100.00
7918;BME280;4004;42.624;23.386;2023-01-26T12:23:28;93962.31;;;0.49;100.00
7918;BME280;4004;42.624;23.386;2023-01-26T12:25:59;93942.34;;;0.43;100.00
7918;BME280;4004;42.624;23.386;2023-01-26T12:28:32;93937.25;;;0.46;100.00
7918;BME280;4004;42.624;23.386;2023-01-26T12:31:06;93933.44;;;0.38;100.00
7918;BME280;4004;42.624;23.386;2023-01-26T12:33:38;93931.38;;;0.35;100.00
7918;BME280;4004;42.624;23.386;2023-01-26T12:36:15;93930.59;;;0.35;100.00
7918;BME280;4004;42.624;23.386;2023-01-26T12:39:00;93923.34;;;0.40;100.00
7918;BME280;4004;42.624;23.386;2023-01-26T12:41:35;93919.63;;;0.41;100.00
7918;BME280;4004;42.624;23.386;2023-01-26T12:44:15;93921.47;;;0.55;100.00
7918;BME280;4004;42.624;23.386;2023-01-26T12:46:52;93913.16;;;0.48;100.00
7918;BME280;4004;42.624;23.386;2023-01-26T12:49:27;93909.31;;;0.40;100.00
7918;BME280;4004;42.624;23.386;2023-01-26T12:52:00;93904.34;;;0.38;100.00
7918;BME280;4004;42.624;23.386;2023-01-26T12:54:35;93898.56;;;0.36;100.00
7918;BME280;4004;42.624;23.386;2023-01-26T12:57:08;93909.25;;;0.45;100.00
7918;BME280;4004;42.624;23.386;2023-01-26T12:59:38;93920.22;;;0.38;100.00
7918;BME280;4004;42.624;23.386;2023-01-26T13:02:17;93908.47;;;0.31;100.00
7918;BME280;4004;42.624;23.386;2023-01-26T13:04:47;93899.34;;;0.37;100.00
7918;BME280;4004;42.624;23.386;2023-01-26T13:07:28;93902.00;;;0.37;100.00
7918;BME280;4004;42.624;23.386;2023-01-26T13:10:22;93912.28;;;0.38;100.00
7918;BME280;4004;42.624;23.386;2023-01-26T13:12:51;93906.03;;;0.34;100.00
7918;BME280;4004;42.624;23.386;2023-01-26T13:15:19;93909.25;;;0.31;100.00
7918;BME280;4004;42.624;23.386;2023-01-26T13:17:49;93907.19;;;0.28;100.00
7918;BME280;4004;42.624;23.386;2023-01-26T13:23:48;93903.50;;;0.29;100.00
7918;BME280;4004;42.624;23.386;2023-01-26T13:26:18;93883.22;;;0.25;100.00
7918;BME280;4004;42.624;23.386;2023-01-26T13:28:46;93890.06;;;0.26;100.00